createdAt,value
2019-05-13T00:00:58.968Z,99.90
2019-05-13T00:03:29.285Z,99.90
2019-05-13T00:05:59.525Z,99.90
2019-05-13T00:08:29.788Z,99.90
2019-05-13T00:11:00.058Z,99.90
2019-05-13T00:13:30.419Z,99.90
2019-05-13T00:16:00.731Z,99.90
2019-05-13T00:18:31.022Z,99.90
2019-05-13T00:21:03.646Z,99.90
2019-05-13T00:23:34.117Z,99.90
2019-05-13T00:26:04.454Z,99.90
2019-05-13T00:28:35.102Z,99.90
2019-05-13T00:31:05.351Z,99.90
2019-05-13T00:33:35.594Z,99.90
2019-05-13T00:36:05.837Z,99.90
2019-05-13T00:38:36.080Z,99.90
2019-05-13T00:41:06.355Z,99.90
2019-05-13T00:43:36.584Z,99.90
2019-05-13T00:46:06.856Z,99.90
2019-05-13T00:48:37.111Z,99.90
2019-05-13T00:51:07.440Z,99.90
2019-05-13T00:53:37.695Z,99.90
2019-05-13T00:56:07.967Z,99.90
2019-05-13T00:58:38.219Z,99.90
2019-05-13T01:01:08.477Z,99.90
2019-05-13T01:03:38.750Z,99.90
2019-05-13T01:06:09.025Z,99.90
2019-05-13T01:08:39.335Z,99.90
2019-05-13T01:11:09.626Z,99.90
2019-05-13T01:13:39.906Z,99.90
2019-05-13T01:16:10.154Z,99.90
2019-05-13T01:18:40.514Z,99.90
2019-05-13T01:21:13.127Z,99.90
2019-05-13T01:23:43.869Z,99.90
2019-05-13T01:26:14.325Z,99.90
2019-05-13T01:28:44.584Z,99.90
2019-05-13T01:31:14.809Z,99.90
2019-05-13T01:33:45.082Z,99.90
2019-05-13T01:36:15.324Z,99.90
2019-05-13T01:38:45.602Z,99.90
2019-05-13T01:41:15.837Z,99.90
2019-05-13T01:43:46.077Z,99.90
2019-05-13T01:46:16.619Z,99.90
2019-05-13T01:48:46.853Z,99.90
2019-05-13T01:51:17.098Z,99.90
2019-05-13T01:53:47.380Z,99.90
2019-05-13T01:56:17.616Z,99.90
2019-05-13T01:58:47.885Z,99.90
2019-05-13T02:01:18.157Z,99.90
2019-05-13T02:03:48.396Z,99.90
2019-05-13T02:06:18.642Z,99.90
2019-05-13T02:08:48.914Z,99.90
2019-05-13T02:11:19.213Z,99.90
2019-05-13T02:13:49.551Z,99.90
2019-05-13T02:16:19.785Z,99.90
2019-05-13T02:18:50.059Z,99.90
2019-05-13T02:21:20.337Z,99.90
2019-05-13T02:23:50.586Z,99.90
2019-05-13T02:26:20.858Z,99.90
2019-05-13T02:28:51.122Z,99.90
2019-05-13T02:31:32.038Z,99.90
2019-05-13T02:33:54.952Z,99.90
2019-05-13T02:36:25.223Z,99.90
2019-05-13T02:38:58.688Z,99.90
2019-05-13T02:41:29.292Z,99.90
2019-05-13T02:44:03.190Z,99.90
2019-05-13T02:46:33.812Z,99.90
2019-05-13T02:49:03.617Z,99.90
2019-05-13T02:51:33.917Z,99.90
2019-05-13T02:54:04.201Z,99.90
2019-05-13T02:56:35.016Z,99.90
2019-05-13T02:59:05.304Z,99.90
2019-05-13T03:01:35.557Z,99.90
2019-05-13T03:04:05.828Z,99.90
2019-05-13T03:06:36.093Z,99.90
2019-05-13T03:09:07.874Z,99.90
2019-05-13T03:11:38.153Z,99.90
2019-05-13T03:14:08.381Z,99.90
2019-05-13T03:16:42.834Z,99.90
2019-05-13T03:19:13.480Z,99.90
2019-05-13T03:21:43.943Z,99.90
2019-05-13T03:24:14.210Z,99.90
2019-05-13T03:26:44.446Z,99.90
2019-05-13T03:29:15.286Z,99.90
2019-05-13T03:31:47.055Z,99.90
2019-05-13T03:34:17.740Z,99.90
2019-05-13T03:36:48.006Z,99.90
2019-05-13T03:39:18.360Z,99.90
2019-05-13T03:41:48.627Z,99.90
2019-05-13T03:44:18.904Z,99.90
2019-05-13T03:46:52.670Z,99.90
2019-05-13T03:49:23.276Z,99.90
2019-05-13T03:51:53.533Z,99.90
2019-05-13T03:54:23.864Z,99.90
2019-05-13T03:56:54.136Z,99.90
2019-05-13T03:59:24.464Z,99.90
2019-05-13T04:01:54.721Z,99.90
2019-05-13T04:04:24.972Z,99.90
2019-05-13T04:06:55.226Z,99.90
2019-05-13T04:09:31.669Z,99.90
2019-05-13T04:11:57.410Z,99.90
2019-05-13T04:14:27.789Z,99.90
2019-05-13T04:16:58.025Z,99.90
2019-05-13T04:19:28.273Z,99.90
2019-05-13T04:21:58.626Z,99.90
2019-05-13T04:24:28.853Z,99.90
2019-05-13T04:27:02.628Z,99.90
2019-05-13T04:29:33.108Z,99.90
2019-05-13T04:32:03.258Z,99.90
2019-05-13T04:34:34.132Z,99.90
2019-05-13T04:37:04.602Z,99.90
2019-05-13T04:39:45.300Z,99.90
2019-05-13T04:42:07.632Z,99.90
2019-05-13T04:44:37.881Z,99.90
2019-05-13T04:47:08.207Z,99.90
2019-05-13T04:49:38.554Z,99.90
2019-05-13T04:52:08.789Z,99.90
2019-05-13T04:54:39.047Z,99.90
2019-05-13T04:57:12.199Z,99.90
2019-05-13T04:59:44.562Z,99.90
2019-05-13T05:02:54.663Z,99.90
2019-05-13T05:05:32.569Z,99.90
2019-05-13T05:08:42.149Z,99.90
2019-05-13T05:11:57.783Z,99.90
2019-05-13T05:14:41.125Z,99.90
2019-05-13T05:17:33.790Z,99.90
2019-05-13T05:20:27.211Z,99.90
2019-05-13T05:23:17.413Z,99.90
2019-05-13T05:26:15.048Z,99.90
2019-05-13T05:28:54.424Z,99.90
2019-05-13T05:31:32.673Z,99.90
2019-05-13T05:34:46.600Z,99.90
2019-05-13T05:37:47.208Z,99.90
2019-05-13T05:40:30.897Z,99.90
2019-05-13T05:42:51.779Z,99.90
2019-05-13T05:45:22.143Z,99.90
2019-05-13T05:47:52.834Z,99.90
2019-05-13T05:50:23.153Z,99.90
2019-05-13T05:52:53.463Z,99.90
2019-05-13T05:55:24.652Z,99.90
2019-05-13T05:57:54.915Z,99.90
2019-05-13T06:00:25.153Z,99.90
2019-05-13T06:02:56.082Z,99.90
2019-05-13T06:05:26.361Z,99.90
2019-05-13T06:07:56.597Z,99.90
2019-05-13T06:10:26.853Z,99.90
2019-05-13T06:12:57.114Z,99.90
2019-05-13T06:15:27.664Z,99.90
2019-05-13T06:17:58.289Z,99.90
2019-05-13T06:20:28.532Z,99.90
2019-05-13T06:22:59.040Z,99.90
2019-05-13T06:25:33.304Z,99.90
2019-05-13T06:28:01.847Z,99.90
2019-05-13T06:30:32.621Z,99.90
2019-05-13T06:33:04.657Z,99.90
2019-05-13T06:35:34.899Z,99.90
2019-05-13T06:38:05.214Z,99.90
2019-05-13T06:40:35.494Z,99.90
2019-05-13T06:43:05.838Z,99.90
2019-05-13T06:45:36.109Z,99.90
2019-05-13T06:48:06.391Z,99.90
2019-05-13T06:50:36.631Z,99.90
2019-05-13T06:53:08.536Z,99.90
2019-05-13T06:55:39.070Z,99.90
2019-05-13T06:58:11.417Z,99.90
2019-05-13T07:00:42.808Z,99.90
2019-05-13T07:03:13.253Z,99.90
2019-05-13T07:05:43.813Z,99.90
2019-05-13T07:08:14.070Z,99.90
2019-05-13T07:10:44.311Z,99.90
2019-05-13T07:13:14.576Z,99.90
2019-05-13T07:15:44.856Z,99.90
2019-05-13T07:18:16.369Z,99.90
2019-05-13T07:20:46.780Z,99.90
2019-05-13T07:23:17.333Z,99.90
2019-05-13T07:25:47.587Z,99.90
2019-05-13T07:28:17.893Z,99.90
2019-05-13T07:30:51.623Z,99.90
2019-05-13T07:33:21.719Z,99.90
2019-05-13T07:35:58.147Z,99.90
2019-05-13T07:38:24.475Z,99.90
2019-05-13T07:41:03.023Z,99.90
2019-05-13T07:43:33.321Z,99.90
2019-05-13T07:46:05.438Z,99.90
2019-05-13T07:48:36.013Z,99.90
2019-05-13T07:51:06.308Z,99.90
2019-05-13T07:53:38.181Z,99.90
2019-05-13T07:56:08.435Z,99.90
2019-05-13T07:58:38.741Z,99.90
2019-05-13T08:01:12.012Z,99.90
2019-05-13T08:03:42.163Z,99.90
2019-05-13T08:06:12.719Z,99.90
2019-05-13T08:08:43.385Z,99.90
2019-05-13T08:11:13.715Z,99.90
2019-05-13T08:13:44.581Z,99.90
2019-05-13T08:16:15.062Z,99.90
2019-05-13T08:18:45.395Z,99.90
2019-05-13T08:21:15.899Z,99.90
2019-05-13T08:23:46.436Z,99.90
2019-05-13T08:26:21.610Z,99.90
2019-05-13T08:29:00.298Z,99.90
2019-05-13T08:31:23.054Z,99.90
2019-05-13T08:33:53.337Z,99.90
2019-05-13T08:36:23.683Z,99.90
2019-05-13T08:38:53.951Z,99.90
2019-05-13T08:41:24.377Z,99.90
2019-05-13T08:43:57.629Z,99.90
2019-05-13T08:46:27.921Z,99.90
2019-05-13T08:48:58.198Z,99.90
2019-05-13T08:51:31.360Z,99.90
2019-05-13T08:54:02.458Z,99.90
2019-05-13T08:56:32.912Z,99.90
2019-05-13T08:59:03.244Z,99.90
2019-05-13T09:01:33.805Z,99.90
2019-05-13T09:04:04.107Z,99.90
2019-05-13T09:06:34.555Z,99.90
2019-05-13T09:09:07.985Z,99.90
2019-05-13T09:11:39.317Z,99.90
2019-05-13T09:14:11.268Z,99.90
2019-05-13T09:16:42.041Z,99.90
2019-05-13T09:19:15.880Z,99.90
2019-05-13T09:21:44.540Z,99.90
2019-05-13T09:24:24.985Z,99.90
2019-05-13T09:26:46.835Z,99.90
2019-05-13T09:29:17.119Z,99.90
2019-05-13T09:31:47.431Z,99.90
2019-05-13T09:34:17.690Z,99.90
2019-05-13T09:36:48.246Z,99.90
2019-05-13T09:39:18.797Z,99.90
2019-05-13T09:41:51.801Z,99.90
2019-05-13T09:44:21.879Z,99.90
2019-05-13T09:46:52.199Z,99.90
2019-05-13T09:49:23.782Z,99.90
2019-05-13T09:51:54.156Z,99.90
2019-05-13T09:54:24.407Z,99.90
2019-05-13T09:56:54.657Z,38.70
2019-05-13T09:59:25.016Z,39.80
2019-05-13T10:01:55.300Z,39.60
2019-05-13T10:04:25.623Z,40.60
2019-05-13T10:06:56.262Z,41.40
2019-05-13T10:09:27.219Z,40.60
2019-05-13T10:11:57.577Z,40.60
2019-05-13T10:14:27.851Z,42.80
2019-05-13T10:16:58.207Z,42.50
2019-05-13T10:19:28.482Z,42.80
2019-05-13T10:21:58.807Z,39.10
2019-05-13T10:24:29.058Z,37.90
2019-05-13T10:27:01.919Z,38.90
2019-05-13T10:29:32.391Z,38.60
2019-05-13T10:32:03.586Z,38.70
2019-05-13T10:34:34.695Z,39.70
2019-05-13T10:37:04.995Z,41.00
2019-05-13T10:39:35.251Z,39.10
2019-05-13T10:42:05.567Z,37.40
2019-05-13T10:44:35.819Z,38.40
2019-05-13T10:47:06.107Z,38.10
2019-05-13T10:49:36.392Z,38.00
2019-05-13T10:52:06.888Z,39.10
2019-05-13T10:54:37.145Z,39.60
2019-05-13T10:57:07.393Z,40.80
2019-05-13T10:59:37.683Z,41.40
2019-05-13T11:02:08.049Z,43.90
2019-05-13T11:04:38.294Z,45.00
2019-05-13T11:07:08.542Z,46.80
2019-05-13T11:09:41.572Z,48.00
2019-05-13T11:12:12.191Z,47.40
2019-05-13T11:14:46.685Z,46.70
2019-05-13T11:17:15.118Z,45.00
2019-05-13T11:19:45.442Z,43.30
2019-05-13T11:22:15.721Z,43.10
2019-05-13T11:24:46.004Z,44.30
2019-05-13T11:27:16.285Z,44.10
2019-05-13T11:29:46.658Z,44.70
2019-05-13T11:32:16.913Z,43.00
2019-05-13T11:34:47.196Z,41.90
2019-05-13T11:37:17.751Z,38.30
2019-05-13T11:39:48.033Z,38.10
2019-05-13T11:42:19.672Z,37.00
2019-05-13T11:44:52.842Z,37.20
2019-05-13T11:47:23.409Z,36.20
2019-05-13T11:49:53.998Z,37.60
2019-05-13T11:52:24.285Z,36.10
2019-05-13T11:54:54.560Z,36.70
2019-05-13T11:57:24.836Z,36.30
2019-05-13T11:59:55.131Z,37.00
2019-05-13T12:02:25.418Z,37.70
2019-05-13T12:04:55.693Z,39.60
2019-05-13T12:07:25.949Z,39.00
2019-05-13T12:09:56.233Z,39.30
2019-05-13T12:12:30.685Z,37.50
2019-05-13T12:15:22.178Z,36.90
2019-05-13T12:17:34.019Z,34.70
2019-05-13T12:20:03.266Z,32.00
2019-05-13T12:22:33.742Z,32.70
2019-05-13T12:25:06.410Z,33.70
2019-05-13T12:27:36.701Z,35.40
2019-05-13T12:30:07.822Z,36.00
2019-05-13T12:32:38.171Z,37.80
2019-05-13T12:35:08.532Z,39.30
2019-05-13T12:37:41.921Z,38.70
2019-05-13T12:40:10.736Z,39.00
2019-05-13T12:42:46.772Z,38.50
2019-05-13T12:45:14.512Z,38.90
2019-05-13T12:47:45.041Z,38.60
2019-05-13T12:50:15.406Z,38.80
2019-05-13T12:52:45.651Z,37.40
2019-05-13T12:55:15.934Z,36.10
2019-05-13T12:57:46.186Z,36.60
2019-05-13T13:00:16.492Z,36.90
2019-05-13T13:02:51.615Z,37.60
2019-05-13T13:05:20.608Z,38.70
2019-05-13T13:08:13.535Z,39.10
2019-05-13T13:10:23.170Z,39.30
2019-05-13T13:12:54.849Z,39.50
2019-05-13T13:15:38.387Z,40.00
2019-05-13T13:17:57.337Z,39.90
2019-05-13T13:20:27.585Z,39.10
2019-05-13T13:22:57.870Z,40.50
2019-05-13T13:25:28.100Z,40.80
2019-05-13T13:28:10.023Z,40.90
2019-05-13T13:30:35.153Z,38.80
2019-05-13T13:33:03.020Z,38.40
2019-05-13T13:35:34.092Z,38.30
2019-05-13T13:38:04.706Z,35.80
2019-05-13T13:40:36.294Z,34.30
2019-05-13T13:43:06.643Z,33.80
2019-05-13T13:46:05.216Z,33.70
2019-05-13T13:48:12.972Z,33.50
2019-05-13T13:50:44.288Z,35.20
2019-05-13T13:53:14.293Z,35.80
2019-05-13T13:55:44.977Z,37.40
2019-05-13T13:58:15.198Z,40.40
2019-05-13T14:01:00.699Z,43.60
2019-05-13T14:03:17.538Z,51.90
2019-05-13T14:05:47.827Z,58.40
2019-05-13T14:08:18.113Z,81.20
2019-05-13T14:10:48.668Z,60.40
2019-05-13T14:13:18.951Z,58.60
2019-05-13T14:15:49.201Z,59.00
2019-05-13T14:18:25.754Z,55.20
2019-05-13T14:20:52.891Z,48.60
2019-05-13T14:23:23.658Z,47.40
2019-05-13T14:25:53.942Z,40.50
2019-05-13T14:28:24.196Z,40.30
2019-05-13T14:30:54.916Z,38.20
2019-05-13T14:33:25.199Z,39.10
2019-05-13T14:35:55.484Z,38.40
2019-05-13T14:38:25.699Z,38.60
2019-05-13T14:40:56.065Z,37.80
2019-05-13T14:43:26.354Z,37.90
2019-05-13T14:45:56.599Z,39.60
2019-05-13T14:48:26.891Z,32.30
2019-05-13T14:50:58.976Z,25.90
2019-05-13T14:53:31.814Z,24.70
2019-05-13T14:56:02.904Z,25.00
2019-05-13T14:58:33.165Z,24.30
2019-05-13T15:01:17.897Z,26.40
2019-05-13T15:03:35.558Z,29.70
2019-05-13T15:06:06.088Z,30.00
2019-05-13T15:08:36.634Z,31.50
2019-05-13T15:11:06.898Z,32.40
2019-05-13T15:13:37.195Z,33.80
2019-05-13T15:16:07.696Z,34.10
2019-05-13T15:18:38.060Z,32.30
2019-05-13T15:21:08.342Z,28.00
2019-05-13T15:23:38.617Z,25.20
2019-05-13T15:26:11.037Z,23.60
2019-05-13T15:28:42.185Z,22.80
2019-05-13T15:31:12.820Z,21.00
2019-05-13T15:33:43.064Z,20.80
2019-05-13T15:36:13.371Z,23.80
2019-05-13T15:38:43.652Z,26.80
2019-05-13T15:41:15.690Z,29.80
2019-05-13T15:43:45.889Z,32.70
2019-05-13T15:46:16.356Z,33.70
2019-05-13T15:48:46.921Z,32.20
2019-05-13T15:51:17.280Z,27.60
2019-05-13T15:53:47.551Z,28.80
2019-05-13T15:56:17.815Z,31.60
2019-05-13T15:58:48.069Z,35.00
2019-05-13T16:01:18.314Z,37.90
2019-05-13T16:03:48.599Z,40.10
2019-05-13T16:06:18.872Z,41.70
2019-05-13T16:08:51.649Z,43.70
2019-05-13T16:11:22.047Z,45.50
2019-05-13T16:13:52.578Z,47.10
2019-05-13T16:16:22.822Z,45.00
2019-05-13T16:18:53.115Z,46.90
2019-05-13T16:21:23.370Z,45.10
2019-05-13T16:23:53.622Z,45.40
2019-05-13T16:26:27.143Z,35.70
2019-05-13T16:28:56.023Z,31.40
2019-05-13T16:31:26.321Z,33.00
2019-05-13T16:33:56.594Z,34.90
2019-05-13T16:36:26.877Z,32.90
2019-05-13T16:38:57.448Z,29.30
2019-05-13T16:41:27.949Z,27.90
2019-05-13T16:43:58.205Z,28.60
2019-05-13T16:46:28.470Z,31.20
2019-05-13T16:48:58.730Z,34.10
2019-05-13T16:51:31.751Z,36.60
2019-05-13T16:54:02.027Z,34.90
2019-05-13T16:56:33.514Z,30.30
2019-05-13T16:59:03.914Z,26.20
2019-05-13T17:01:35.082Z,24.90
2019-05-13T17:04:05.427Z,27.10
2019-05-13T17:06:35.979Z,31.30
2019-05-13T17:09:07.218Z,35.00
2019-05-13T17:11:38.335Z,37.70
2019-05-13T17:14:08.616Z,39.80
2019-05-13T17:16:41.198Z,41.20
2019-05-13T17:19:12.123Z,42.00
2019-05-13T17:21:43.449Z,43.10
2019-05-13T17:24:13.728Z,40.20
2019-05-13T17:26:43.979Z,38.70
2019-05-13T17:29:14.263Z,39.40
2019-05-13T17:31:44.550Z,41.10
2019-05-13T17:34:14.823Z,42.20
2019-05-13T17:36:46.815Z,43.60
2019-05-13T17:39:17.094Z,45.10
2019-05-13T17:41:47.350Z,44.60
2019-05-13T17:44:17.907Z,44.60
2019-05-13T17:46:48.192Z,45.40
2019-05-13T17:49:18.472Z,46.10
2019-05-13T17:51:48.766Z,45.80
2019-05-13T17:54:19.313Z,46.20
2019-05-13T17:56:49.581Z,46.20
2019-05-13T17:59:21.689Z,46.60
2019-05-13T18:01:51.827Z,47.30
2019-05-13T18:04:22.736Z,47.40
2019-05-13T18:06:53.094Z,48.00
2019-05-13T18:09:23.398Z,49.40
2019-05-13T18:11:53.665Z,51.50
2019-05-13T18:14:23.974Z,54.60
2019-05-13T18:16:54.320Z,57.10
2019-05-13T18:19:25.867Z,58.20
2019-05-13T18:21:56.218Z,58.70
2019-05-13T18:24:26.513Z,60.60
2019-05-13T18:26:56.794Z,60.40
2019-05-13T18:29:27.081Z,61.10
2019-05-13T18:31:57.327Z,61.60
2019-05-13T18:34:27.576Z,63.50
2019-05-13T18:36:57.942Z,64.20
2019-05-13T18:39:28.276Z,66.50
2019-05-13T18:41:58.546Z,66.50
2019-05-13T18:44:28.824Z,68.50
2019-05-13T18:47:01.340Z,71.10
2019-05-13T18:49:31.865Z,71.50
2019-05-13T18:52:02.429Z,73.70
2019-05-13T18:54:32.678Z,76.20
2019-05-13T18:57:03.941Z,79.50
2019-05-13T18:59:34.179Z,81.10
2019-05-13T19:02:04.725Z,84.20
2019-05-13T19:04:35.073Z,85.50
2019-05-13T19:07:07.755Z,88.90
2019-05-13T19:09:37.340Z,91.10
2019-05-13T19:12:07.563Z,91.00
2019-05-13T19:14:37.809Z,92.20
2019-05-13T19:17:08.098Z,93.20
2019-05-13T19:19:38.360Z,93.60
2019-05-13T19:22:08.636Z,94.50
2019-05-13T19:24:38.921Z,94.90
2019-05-13T19:27:09.264Z,95.60
2019-05-13T19:29:42.232Z,95.60
2019-05-13T19:32:12.428Z,95.70
2019-05-13T19:34:43.753Z,95.70
2019-05-13T19:37:13.992Z,95.80
2019-05-13T19:39:44.307Z,96.20
2019-05-13T19:42:14.584Z,96.50
2019-05-13T19:44:45.074Z,96.80
2019-05-13T19:47:15.340Z,97.30
2019-05-13T19:49:46.739Z,97.90
2019-05-13T19:52:17.357Z,98.30
2019-05-13T19:54:47.628Z,98.40
2019-05-13T19:57:17.915Z,98.80
2019-05-13T19:59:48.159Z,99.40
2019-05-13T20:02:18.568Z,98.50
2019-05-13T20:04:48.969Z,98.80
2019-05-13T20:07:19.209Z,98.50
2019-05-13T20:09:51.724Z,98.90
2019-05-13T20:12:21.729Z,99.80
2019-05-13T20:14:51.966Z,99.90
2019-05-13T20:17:22.262Z,99.90
2019-05-13T20:19:53.636Z,99.90
2019-05-13T20:22:24.133Z,99.90
2019-05-13T20:24:54.371Z,99.90
2019-05-13T20:27:24.619Z,99.90
2019-05-13T20:29:54.898Z,99.90
2019-05-13T20:32:25.294Z,99.90
2019-05-13T20:34:55.537Z,99.90
2019-05-13T20:37:25.809Z,99.90
2019-05-13T20:39:56.063Z,99.90
2019-05-13T20:42:26.436Z,99.90
2019-05-13T20:44:56.685Z,99.90
2019-05-13T20:47:27.027Z,99.90
2019-05-13T20:50:01.907Z,99.90
2019-05-13T20:52:31.267Z,99.90
2019-05-13T20:55:01.964Z,99.90
2019-05-13T20:57:32.437Z,99.90
2019-05-13T21:00:02.781Z,99.90
2019-05-13T21:02:33.015Z,99.90
2019-05-13T21:05:03.842Z,99.90
2019-05-13T21:07:34.121Z,99.90
2019-05-13T21:10:04.362Z,99.90
2019-05-13T21:12:34.618Z,99.90
2019-05-13T21:15:06.735Z,99.90
2019-05-13T21:17:36.980Z,99.90
2019-05-13T21:20:18.803Z,99.90
2019-05-13T21:22:42.231Z,99.90
2019-05-13T21:25:11.900Z,99.90
2019-05-13T21:27:42.191Z,99.90
2019-05-13T21:30:12.414Z,99.90
2019-05-13T21:32:42.764Z,99.90
2019-05-13T21:35:12.998Z,99.90
2019-05-13T21:37:43.245Z,99.90
2019-05-13T21:40:13.627Z,99.90
2019-05-13T21:42:43.869Z,99.90
2019-05-13T21:45:14.369Z,99.90
2019-05-13T21:47:44.631Z,99.90
2019-05-13T21:50:14.887Z,99.90
2019-05-13T21:52:45.263Z,99.90
2019-05-13T21:55:15.542Z,99.90
2019-05-13T21:57:45.853Z,99.90
2019-05-13T22:00:17.820Z,99.90
2019-05-13T22:02:48.088Z,99.90
2019-05-13T22:05:18.335Z,99.90
2019-05-13T22:07:48.626Z,99.90
2019-05-13T22:10:18.891Z,99.90
2019-05-13T22:12:49.206Z,99.90
2019-05-13T22:15:21.713Z,99.90
2019-05-13T22:17:51.534Z,99.90
2019-05-13T22:20:21.804Z,99.90
2019-05-13T22:22:52.195Z,99.90
2019-05-13T22:25:22.567Z,99.90
2019-05-13T22:27:52.959Z,99.90
2019-05-13T22:30:23.201Z,99.90
2019-05-13T22:32:53.475Z,99.90
2019-05-13T22:35:23.748Z,99.90
2019-05-13T22:37:54.015Z,99.90
2019-05-13T22:40:24.637Z,99.90
2019-05-13T22:42:56.823Z,99.90
2019-05-13T22:45:26.882Z,99.90
2019-05-13T22:47:57.219Z,99.90
2019-05-13T22:50:27.534Z,99.90
2019-05-13T22:52:57.881Z,99.90
2019-05-13T22:55:28.380Z,99.90
2019-05-13T22:57:58.661Z,99.90
2019-05-13T23:00:28.900Z,99.90
2019-05-13T23:03:01.468Z,99.90
2019-05-13T23:05:31.145Z,99.90
2019-05-13T23:08:02.202Z,99.90
2019-05-13T23:10:32.547Z,99.90
2019-05-13T23:13:02.846Z,99.90
2019-05-13T23:15:33.082Z,99.90
2019-05-13T23:18:03.365Z,99.90
2019-05-13T23:20:33.668Z,99.90
2019-05-13T23:23:03.940Z,99.90
2019-05-13T23:25:34.202Z,99.90
2019-05-13T23:28:04.470Z,99.90
2019-05-13T23:30:34.749Z,99.90
2019-05-13T23:33:05.047Z,99.90
2019-05-13T23:35:35.312Z,99.90
2019-05-13T23:38:05.591Z,99.90
2019-05-13T23:40:35.828Z,99.90
2019-05-13T23:43:06.330Z,99.90
2019-05-13T23:45:36.828Z,99.90
2019-05-13T23:48:07.210Z,99.90
2019-05-13T23:50:37.424Z,99.90
2019-05-13T23:53:07.671Z,99.90
2019-05-13T23:55:37.945Z,99.90
2019-05-13T23:58:08.247Z,99.90
